UAL285 KSFO-KEWR
Flight info
| Callsign | UAL285 |
|---|---|
| Flight time | N/A |
| Altitude | 37000 |
| Route | TRUKN2 TIPRE Q126 BASNN OVR/N0469F390 DSM EVOTE NELLS KEEHO J584 SLT FQM3 |
| Aircraft | B772/H-SDE2E3FGHIJ5LORVWXY/LB1D1 |
Departure
| Time | 2026-05-05 02:06 |
|---|---|
| Airport | San Francisco International Airport (KSFO) |
Arrival
| Time | N/A |
|---|---|
| Airport | Newark Liberty International Airport (KEWR) |
| Time | Latitude | Longitude | Altitude | Speed | Heading |
|---|---|---|---|---|---|
| 2026-05-05 01:24 | 37.62112 | -122.38843 | 27 ft | 0 kts | 207° |
| 2026-05-05 01:51 | 37.62116 | -122.38841 | 27 ft | 3 kts | 207° |
| 2026-05-05 01:52 | 37.62139 | -122.38825 | 25 ft | 4 kts | 207° |
| 2026-05-05 01:52 | 37.62161 | -122.38810 | 25 ft | 4 kts | 207° |
| 2026-05-05 01:52 | 37.62180 | -122.38798 | 26 ft | 4 kts | 198° |
| 2026-05-05 01:52 | 37.62203 | -122.38796 | 26 ft | 4 kts | 154° |
| 2026-05-05 01:53 | 37.62222 | -122.38815 | 26 ft | 4 kts | 121° |
| 2026-05-05 01:53 | 37.62234 | -122.38842 | 25 ft | 4 kts | 117° |
| 2026-05-05 01:53 | 37.62246 | -122.38871 | 25 ft | 4 kts | 117° |
| 2026-05-05 01:53 | 37.62257 | -122.38899 | 25 ft | 4 kts | 117° |
| 2026-05-05 01:54 | 37.62264 | -122.38914 | 25 ft | 0 kts | 117° |
| 2026-05-05 01:57 | 37.62253 | -122.38889 | 24 ft | 9 kts | 117° |
| 2026-05-05 01:58 | 37.62198 | -122.38757 | 27 ft | 24 kts | 117° |
| 2026-05-05 01:58 | 37.62121 | -122.38571 | 27 ft | 16 kts | 117° |
| 2026-05-05 01:58 | 37.62098 | -122.38516 | 27 ft | 0 kts | 117° |
| 2026-05-05 01:58 | 37.62096 | -122.38511 | 27 ft | 1 kts | 117° |
| 2026-05-05 01:59 | 37.62077 | -122.38468 | 27 ft | 14 kts | 118° |
| 2026-05-05 01:59 | 37.62024 | -122.38341 | 26 ft | 17 kts | 117° |
| 2026-05-05 01:59 | 37.61969 | -122.38210 | 27 ft | 17 kts | 117° |
| 2026-05-05 01:59 | 37.61914 | -122.38080 | 27 ft | 17 kts | 118° |
| 2026-05-05 02:00 | 37.61860 | -122.37950 | 27 ft | 17 kts | 118° |
| 2026-05-05 02:00 | 37.61814 | -122.37814 | 27 ft | 17 kts | 111° |
| 2026-05-05 02:00 | 37.61770 | -122.37677 | 31 ft | 17 kts | 112° |
| 2026-05-05 02:00 | 37.61727 | -122.37540 | 27 ft | 17 kts | 112° |
| 2026-05-05 02:01 | 37.61675 | -122.37408 | 27 ft | 17 kts | 117° |
| 2026-05-05 02:01 | 37.61622 | -122.37277 | 27 ft | 17 kts | 117° |
| 2026-05-05 02:01 | 37.61551 | -122.37114 | 27 ft | 29 kts | 119° |
| 2026-05-05 02:01 | 37.61439 | -122.36887 | 27 ft | 28 kts | 131° |
| 2026-05-05 02:02 | 37.61335 | -122.36704 | 27 ft | 23 kts | 117° |
| 2026-05-05 02:02 | 37.61261 | -122.36526 | 27 ft | 23 kts | 118° |
| 2026-05-05 02:02 | 37.61196 | -122.36378 | 27 ft | 18 kts | 119° |
| 2026-05-05 02:02 | 37.61137 | -122.36241 | 27 ft | 18 kts | 118° |
| 2026-05-05 02:03 | 37.61080 | -122.36103 | 27 ft | 18 kts | 117° |
| 2026-05-05 02:03 | 37.61056 | -122.36007 | 27 ft | 0 kts | 94° |
| 2026-05-05 02:04 | 37.61058 | -122.35984 | 27 ft | 8 kts | 78° |
| 2026-05-05 02:04 | 37.61122 | -122.35901 | 27 ft | 19 kts | 19° |
| 2026-05-05 02:05 | 37.61231 | -122.35988 | 27 ft | 5 kts | 298° |
| 2026-05-05 02:05 | 37.61243 | -122.36018 | 27 ft | 17 kts | 298° |
| 2026-05-05 02:05 | 37.61407 | -122.36407 | 27 ft | 91 kts | 298° |
| 2026-05-05 02:05 | 37.61819 | -122.37408 | 45 ft | 159 kts | 295° |
| 2026-05-05 02:06 | 37.62328 | -122.38624 | 785 ft | 159 kts | 298° |
| 2026-05-05 02:06 | 37.62856 | -122.39896 | 1552 ft | 167 kts | 297° |
| 2026-05-05 02:06 | 37.63395 | -122.41187 | 2376 ft | 167 kts | 297° |
| 2026-05-05 02:06 | 37.63980 | -122.42522 | 2820 ft | 187 kts | 297° |
| 2026-05-05 02:07 | 37.64639 | -122.43979 | 3399 ft | 195 kts | 298° |
| 2026-05-05 02:07 | 37.65339 | -122.45568 | 3761 ft | 220 kts | 296° |
| 2026-05-05 02:07 | 37.66131 | -122.47299 | 4349 ft | 229 kts | 303° |
| 2026-05-05 02:07 | 37.67318 | -122.48711 | 4862 ft | 251 kts | 332° |
| 2026-05-05 02:08 | 37.69093 | -122.49034 | 5328 ft | 267 kts | 13° |
| 2026-05-05 02:08 | 37.70746 | -122.48064 | 6269 ft | 262 kts | 42° |
| 2026-05-05 02:08 | 37.71802 | -122.46263 | 7254 ft | 258 kts | 68° |
| 2026-05-05 02:08 | 37.72080 | -122.44046 | 7956 ft | 259 kts | 92° |
| 2026-05-05 02:09 | 37.72026 | -122.41733 | 8892 ft | 257 kts | 90° |
| 2026-05-05 02:09 | 37.72100 | -122.39562 | 9998 ft | 246 kts | 74° |
| 2026-05-05 02:09 | 37.72720 | -122.37503 | 10356 ft | 260 kts | 63° |
| 2026-05-05 02:09 | 37.73545 | -122.35374 | 10623 ft | 282 kts | 62° |
| 2026-05-05 02:10 | 37.74445 | -122.33079 | 11022 ft | 301 kts | 63° |
| 2026-05-05 02:10 | 37.75408 | -122.30576 | 11234 ft | 332 kts | 63° |
| 2026-05-05 02:10 | 37.76437 | -122.27858 | 11742 ft | 349 kts | 64° |
| 2026-05-05 02:10 | 37.77489 | -122.25025 | 12793 ft | 355 kts | 64° |
| 2026-05-05 02:11 | 37.78541 | -122.22165 | 13840 ft | 361 kts | 64° |
| 2026-05-05 02:11 | 37.79597 | -122.19268 | 14858 ft | 364 kts | 64° |
| 2026-05-05 02:11 | 37.80657 | -122.16347 | 15910 ft | 366 kts | 65° |
| 2026-05-05 02:11 | 37.81717 | -122.13415 | 17027 ft | 368 kts | 65° |
| 2026-05-05 02:12 | 37.82781 | -122.10462 | 18126 ft | 371 kts | 65° |
| 2026-05-05 02:12 | 37.84919 | -122.04521 | 20078 ft | 374 kts | 65° |
| 2026-05-05 02:12 | 37.85998 | -122.01517 | 21075 ft | 375 kts | 65° |
| 2026-05-05 02:13 | 37.87078 | -121.98508 | 22043 ft | 376 kts | 65° |
| 2026-05-05 02:13 | 37.88164 | -121.95482 | 22977 ft | 379 kts | 65° |
| 2026-05-05 02:13 | 37.89259 | -121.92428 | 23812 ft | 382 kts | 65° |
| 2026-05-05 02:13 | 37.90364 | -121.89344 | 24523 ft | 386 kts | 65° |
| 2026-05-05 02:14 | 37.91478 | -121.86228 | 25185 ft | 391 kts | 65° |
| 2026-05-05 02:14 | 37.92608 | -121.83073 | 25838 ft | 395 kts | 65° |
| 2026-05-05 02:14 | 37.93743 | -121.79889 | 26522 ft | 398 kts | 65° |
| 2026-05-05 02:14 | 37.94890 | -121.76664 | 27070 ft | 405 kts | 65° |
| 2026-05-05 02:15 | 37.96054 | -121.73388 | 27652 ft | 410 kts | 65° |
| 2026-05-05 02:15 | 37.97216 | -121.70120 | 28303 ft | 412 kts | 66° |
| 2026-05-05 02:15 | 37.98381 | -121.66843 | 28946 ft | 415 kts | 66° |
| 2026-05-05 02:15 | 37.99571 | -121.63491 | 29521 ft | 419 kts | 66° |
| 2026-05-05 02:16 | 38.00772 | -121.60102 | 30063 ft | 423 kts | 66° |
| 2026-05-05 02:16 | 38.01983 | -121.56683 | 30490 ft | 427 kts | 66° |
| 2026-05-05 02:16 | 38.03205 | -121.53230 | 30866 ft | 431 kts | 66° |
| 2026-05-05 02:16 | 38.04439 | -121.49737 | 31163 ft | 437 kts | 66° |
| 2026-05-05 02:17 | 38.05686 | -121.46205 | 31559 ft | 439 kts | 66° |
| 2026-05-05 02:17 | 38.06934 | -121.42662 | 32044 ft | 439 kts | 65° |
| 2026-05-05 02:17 | 38.08178 | -121.39127 | 32564 ft | 439 kts | 65° |
| 2026-05-05 02:17 | 38.09408 | -121.35629 | 33033 ft | 439 kts | 65° |
| 2026-05-05 02:18 | 38.10651 | -121.32089 | 33479 ft | 440 kts | 65° |
| 2026-05-05 02:18 | 38.11897 | -121.28536 | 33928 ft | 441 kts | 65° |
| 2026-05-05 02:18 | 38.13147 | -121.24970 | 34288 ft | 442 kts | 65° |
| 2026-05-05 02:18 | 38.14403 | -121.21379 | 34447 ft | 448 kts | 65° |
| 2026-05-05 02:19 | 38.15672 | -121.17746 | 34684 ft | 451 kts | 66° |
| 2026-05-05 02:19 | 38.16947 | -121.14096 | 35022 ft | 452 kts | 66° |
| 2026-05-05 02:19 | 38.18225 | -121.10430 | 35337 ft | 454 kts | 66° |
| 2026-05-05 02:19 | 38.19490 | -121.06756 | 35619 ft | 456 kts | 68° |
| 2026-05-05 02:20 | 38.20553 | -121.02946 | 35884 ft | 458 kts | 73° |
| 2026-05-05 02:20 | 38.21336 | -120.99003 | 36183 ft | 460 kts | 78° |
| 2026-05-05 02:20 | 38.21904 | -120.94994 | 36457 ft | 463 kts | 79° |
| 2026-05-05 02:20 | 38.22460 | -120.90941 | 36605 ft | 467 kts | 79° |
| 2026-05-05 02:21 | 38.23016 | -120.86863 | 36881 ft | 469 kts | 79° |
| 2026-05-05 02:21 | 38.23578 | -120.82766 | 36984 ft | 474 kts | 79° |
| 2026-05-05 02:21 | 38.24151 | -120.78627 | 37025 ft | 474 kts | 79° |
| 2026-05-05 02:22 | 38.25296 | -120.70421 | 37027 ft | 468 kts | 79° |
| 2026-05-05 02:22 | 38.26434 | -120.62292 | 37036 ft | 466 kts | 79° |
| 2026-05-05 02:23 | 38.27563 | -120.54188 | 37036 ft | 465 kts | 79° |
| 2026-05-05 02:23 | 38.28678 | -120.46134 | 37036 ft | 466 kts | 79° |
| 2026-05-05 02:24 | 38.29798 | -120.38004 | 37029 ft | 466 kts | 79° |
| 2026-05-05 02:24 | 38.30914 | -120.29855 | 37034 ft | 468 kts | 80° |
| 2026-05-05 02:25 | 38.32025 | -120.21699 | 37039 ft | 469 kts | 80° |
| 2026-05-05 02:25 | 38.33135 | -120.13509 | 37028 ft | 470 kts | 80° |
| 2026-05-05 02:26 | 38.34240 | -120.05303 | 37014 ft | 470 kts | 80° |
| 2026-05-05 02:26 | 38.35331 | -119.97159 | 37019 ft | 469 kts | 80° |
| 2026-05-05 02:27 | 38.36426 | -119.88943 | 37007 ft | 471 kts | 80° |
| 2026-05-05 02:27 | 38.37518 | -119.80707 | 36965 ft | 473 kts | 81° |
| 2026-05-05 02:28 | 38.38427 | -119.73816 | 36974 ft | 475 kts | 81° |
| 2026-05-05 02:28 | 38.39518 | -119.65497 | 36965 ft | 477 kts | 81° |
| 2026-05-05 02:29 | 38.40609 | -119.57127 | 36933 ft | 479 kts | 81° |
| 2026-05-05 02:29 | 38.41696 | -119.48742 | 36922 ft | 480 kts | 81° |
| 2026-05-05 02:30 | 38.42781 | -119.40331 | 36902 ft | 480 kts | 81° |
| 2026-05-05 02:30 | 38.43857 | -119.31930 | 36875 ft | 480 kts | 81° |
| 2026-05-05 02:31 | 38.44928 | -119.23528 | 36847 ft | 480 kts | 82° |
| 2026-05-05 02:31 | 38.45994 | -119.15108 | 36860 ft | 480 kts | 81° |
| 2026-05-05 02:32 | 38.47056 | -119.06676 | 36857 ft | 482 kts | 82° |
| 2026-05-05 02:32 | 38.48110 | -118.98256 | 36847 ft | 484 kts | 82° |
| 2026-05-05 02:33 | 38.49165 | -118.89770 | 36850 ft | 485 kts | 82° |
| 2026-05-05 02:33 | 38.50219 | -118.81253 | 36871 ft | 487 kts | 82° |